Tiempo atmosférico en la estación meteorológica de Sineu, Illes Balears (120 m.)



Fecha
DESCASC
Temp. máxima en grados centígrados (hora)
DESCASC
Temp. mínima en grados centígrados (hora)
DESCASC
Temp. media en grados centígrados
DESCASC
Racha de viento máxima en m/sg (hora)
DESCASC
Velocidad máxima media en intervalos de 10 minutos(hora)
DESCASC
Precipitaciones diarias en mm
DESCASC
Precipitaciones de 00:00 a 06:00 en mm
DESCASC
Precipitaciones de 06:00 a 12:00 en mm
DESCASC
Precipitaciones de 12:00 a 18:00 en mm
DESCASC
Precipitaciones de 18:00 a 24:00 en mm
DESCASC
18-08-2019 35.8 (16:10) 21.3 (07:30) 28.5 7.78 (14:30) 5 (14:50) 0 0 0 0 0
17-08-2019 34 (15:00) 20.4 (07:20) 27.2 8.06 (16:00) 4.44 (14:20) 0 0 0 0 0
16-08-2019 32.3 (17:10) 19.6 (07:30) 25.9 8.06 (18:30) 4.17 (14:20) 0 0 0 0 0
15-08-2019 31.9 (14:30) 18.8 (00:00) 25.3 7.78 (13:10) 3.89 (16:30) 0 0 0 0 0
14-08-2019 30.2 (15:10) 17.9 (00:00) 24.1 10 (15:20) 5.56 (15:40) 0 0 0 0 0
13-08-2019 26.8 (16:30) 21.1 (00:00) 23.9 11.11 (10:00) 6.94 (10:00) 0 0 0 0 0
12-08-2019 27.8 (13:00) 23.5 (00:00) 25.6 10.28 (11:40) 6.39 (12:30) 0 0 0 0 0
11-08-2019 36 (15:00) 23.5 (00:00) 29.8 7.22 (13:40) 4.44 (16:20) 0 0 0 0 0
10-08-2019 32.3 (16:20) 23.8 (00:00) 28 8.06 (13:20) 5.28 (13:20) 0 0 0 0 0
09-08-2019 36.7 (15:50) 23.5 (00:00) 30.1 12.22 (11:30) 5 (16:10) 0 0 0 0 0
08-08-2019 35.3 (16:40) 23.9 (00:00) 29.6 8.33 (14:40) 3.89 (15:00) 0 0 0 0 0
07-08-2019 34.1 (14:00) 22.7 (00:00) 28.4 8.33 (16:10) 5 (14:30) 0 0 0 0 0
06-08-2019 34.9 (16:10) 22.3 (00:00) 28.6 7.5 (13:10) 4.17 (16:40) 0 0 0 0 0
05-08-2019 35.2 (15:00) 20.7 (00:00) 28 8.06 (14:20) 5 (15:30) 0 0 0 0 0
04-08-2019 34.9 (14:30) 19.3 (00:00) 27.1 8.33 (14:00) 4.44 (14:20) 0 0 0 0 0
03-08-2019 33.2 (14:30) 18.2 (00:00) 25.7 7.5 (15:20) 4.44 (15:10) 0 0 0 0 0
02-08-2019 29.9 (17:20) 22.7 (00:00) 26.3 11.94 (10:40) 7.22 (10:40) 0 0 0 0 0
01-08-2019 32.7 (15:40) 21.1 (00:00) 26.9 8.06 (20:00) 5.28 (20:00) 0 0 0 0 0
31-07-2019 27.8 (15:20) 21.8 (00:00) 24.8 11.94 (11:00) 7.78 (11:00) 0 0 0 0 0
30-07-2019 32 (12:50) 20.2 (00:00) 26.1 8.89 (15:40) 5.56 (17:20) 0 0 0 0 0
29-07-2019 32.8 (15:30) 16.8 (00:00) 24.8 8.61 (15:40) 4.72 (17:00) 0 0 0 0 0
28-07-2019 29.7 (17:10) 21 (00:00) 25.4 9.72 (13:50) 6.11 (14:30) 0 0 0 0 0
27-07-2019 31.2 (15:10) 22.7 (00:00) 27 13.33 (16:40) 7.22 (16:10) 0 0 0 0 0
26-07-2019 34 (14:40) 20.8 (00:00) 27.4 8.61 (17:10) 4.17 (15:20) 0 0 0 0 0
25-07-2019 35.9 (15:30) 21.8 (00:00) 28.9 8.61 (17:20) 5 (17:10) 0 0 0 0 0
24-07-2019 35.7 (15:40) 20.1 (00:00) 27.9 7.5 (15:30) 4.17 (14:30) 0 0 0 0 0
23-07-2019 37.1 (14:40) 20.6 (00:00) 28.8 8.61 (15:30) 5.56 (15:10) 0 0 0 0 0
22-07-2019 35.5 (17:20) 20 (00:00) 27.8 8.33 (15:00) 4.17 (14:40) 0 0 0 0 0
21-07-2019 33.1 (15:20) 19.7 (00:00) 26.4 8.33 (13:10) 4.72 (14:40) 0 0 0 0 0

Gráficas

Temp. máximas Temp. mínimas Temp. medias Precipitaciones Rachas de viento máximas Velocidades máximas media en intervalos de 10 minutos

Datos horarios

Fecha y hora oficial Temperatura (ºC) Velocidad del viento (km/h) Dirección del viento Racha (km/h) Dirección de racha Precipitación (mm) Presión (hPa) Tendencia (hPa) Humedad (%)
2019-08-19 23:00:00 25.5 0 Calma 9 Este 0 -- -- 73
2019-08-19 22:00:00 26.1 6 Este 15 Este 0 -- -- 71
2019-08-19 21:00:00 27.2 9 Este 17 Este 0 -- -- 65
2019-08-19 20:00:00 29.7 9 Sudeste 21 Sudeste 0 -- -- 50
2019-08-19 19:00:00 31.4 12 Sudeste 24 Sudeste 0 -- -- 44
2019-08-19 18:00:00 32.2 12 Sudeste 28 Sudeste 0 -- -- 39
2019-08-19 17:00:00 32.6 13 Sudeste 27 Este 0 -- -- 39
2019-08-19 16:00:00 33.3 13 Sudeste 26 Este 0 -- -- 34
2019-08-19 15:00:00 32.9 12 Sudeste 26 Este 0 -- -- 36
2019-08-19 14:00:00 32.3 14 Este 26 Este 0 -- -- 42
2019-08-19 13:00:00 32.3 10 Este 35 Este 0 -- -- 43
2019-08-19 12:00:00 31.1 8 Este 16 Este 0 -- -- 47
2019-08-19 11:00:00 29.7 6 Sudeste 15 Sudeste 0 -- -- 52
2019-08-19 10:00:00 27.7 10 Sudeste 18 Sudeste 0 -- -- 64
2019-08-19 09:00:00 25.5 3 Sudeste 8 Sudeste 0 -- -- 76
2019-08-19 08:00:00 21.7 0 Calma 6 Sur 0 -- -- 76
2019-08-19 07:00:00 21.1 4 Sur 6 Sur 0 -- -- 82
2019-08-19 06:00:00 21 0 Calma 4 Sudoeste 0 -- -- 76
2019-08-19 05:00:00 22.1 0 Calma 9 Sudeste 0 -- -- 77
2019-08-19 04:00:00 22.9 2 Sur 6 Sur 0 -- -- 74
2019-08-19 03:00:00 22.4 0 Calma 5 Sudeste 0 -- -- 71
2019-08-19 02:00:00 23.5 0 Calma 5 Oeste 0 -- -- 69
2019-08-19 01:00:00 24.9 4 Sudeste 9 Sur 0 -- -- 66
2019-08-19 00:00:00 24.5 0 Calma 5 Sur 0 -- -- 68
2019-08-18 23:00:00 25.9 4 Sur 10 Sur 0 -- -- 72
2019-08-18 22:00:00 26.9 5 Sudeste 15 Sudeste 0 -- -- 63
2019-08-18 21:00:00 28.8 6 Sudeste 17 Sudeste 0 -- -- 49
2019-08-18 20:00:00 31.8 10 Sudeste 22 Sudeste 0 -- -- 36
2019-08-18 19:00:00 33.6 14 Sudeste 26 Este 0 -- -- 26
2019-08-18 18:00:00 35.4 11 Sur 24 Sudeste 0 -- -- 21
2019-08-18 17:00:00 35.6 13 Sudeste 24 Sur 0 -- -- 21
2019-08-18 16:00:00 35.7 12 Sur 28 Este 0 -- -- 23
2019-08-18 15:00:00 35.2 15 Sudeste 28 Sudeste 0 -- -- 27
2019-08-18 14:00:00 35 12 Este 23 Este 0 -- -- 27
2019-08-18 13:00:00 34.2 10 Este 21 Este 0 -- -- 29
2019-08-18 12:00:00 32.4 6 Sudeste 18 Sudeste 0 -- -- 35
2019-08-18 11:00:00 30 5 Este 15 Este 0 -- -- 51
2019-08-18 10:00:00 27.3 8 Este 12 Este 0 -- -- 64
2019-08-18 09:00:00 25.8 0 Calma 4 Este 0 -- -- 74
2019-08-18 08:00:00 22.2 0 Calma 2 Sudoeste 0 -- -- 81
2019-08-18 07:00:00 21.5 0 Calma 0 Calma 0 -- -- 82
2019-08-18 06:00:00 22.3 0 Calma 3 Sudoeste 0 -- -- 82
2019-08-18 05:00:00 22.9 0 Calma 6 Oeste 0 -- -- 80
2019-08-18 04:00:00 23.5 4 Sudoeste 6 Sudoeste 0 -- -- 83
2019-08-18 03:00:00 23.2 3 Sudoeste 8 Sudoeste 0 -- -- 82
2019-08-18 02:00:00 23.4 4 Sudoeste 5 Sudoeste 0 -- -- 80
2019-08-18 01:00:00 24.3 0 Calma 5 Sur 0 -- -- 78
2019-08-18 00:00:00 24.9 3 Sudeste 10 Sudeste 0 -- -- 77
2019-08-17 23:00:00 25.3 4 Sudeste 12 Sudeste 0 -- -- 74
2019-08-17 22:00:00 26 5 Sudeste 19 Este 0 -- -- 68
2019-08-17 21:00:00 27.4 11 Sudeste 19 Sudeste 0 -- -- 60
2019-08-17 20:00:00 29.7 10 Sudeste 24 Sudeste 0 -- -- 45
2019-08-17 19:00:00 31.5 15 Sudeste 27 Sudeste 0 -- -- 36
2019-08-17 18:00:00 32.7 14 Sur 27 Sur 0 -- -- 31
2019-08-17 17:00:00 33 15 Sudeste 29 Sur 0 -- -- 30
2019-08-17 16:00:00 33.4 16 Sur 29 Sur 0 -- -- 27
2019-08-17 15:00:00 34 14 Sur 28 Sudeste 0 -- -- 29
2019-08-17 14:00:00 33.4 15 Sudeste 26 Sudeste 0 -- -- 30
2019-08-17 13:00:00 32.8 8 Este 17 Sur 0 -- -- 29
2019-08-17 12:00:00 31.1 8 Sudeste 18 Sur 0 -- -- 34
2019-08-17 11:00:00 29.2 3 Sur 16 Sudeste 0 -- -- 40
2019-08-17 10:00:00 27 9 Sudeste 16 Sudeste 0 -- -- 57
2019-08-17 09:00:00 25.4 3 Sudeste 6 Sudeste 0 -- -- 71
2019-08-17 08:00:00 21.6 0 Calma 0 Calma 0 -- -- 80
2019-08-17 07:00:00 20.6 0 Calma 6 Sur 0 -- -- 82
2019-08-17 06:00:00 21.3 3 Sur 6 Sur 0 -- -- 82
2019-08-17 05:00:00 21.5 2 Sur 4 Sur 0 -- -- 81
2019-08-17 04:00:00 21.9 3 Sur 9 Sur 0 -- -- 80
2019-08-17 03:00:00 22 6 Sur 12 Sur 0 -- -- 79
2019-08-17 02:00:00 22.9 5 Sudeste 8 Sur 0 -- -- 75
2019-08-17 01:00:00 23.3 2 Sudoeste 6 Sudoeste 0 -- -- 73
2019-08-17 00:00:00 23.9 3 Sudoeste 8 Sur 0 -- -- 71
2019-08-16 23:00:00 24.7 3 Sudoeste 8 Sur 0 -- -- 66
2019-08-16 22:00:00 25.9 3 Sudoeste 14 Sur 0 -- -- 58
2019-08-16 21:00:00 27.2 5 Sudoeste 13 Sudoeste 0 -- -- 52
2019-08-16 20:00:00 29.6 8 Sudoeste 18 Sudoeste 0 -- -- 45
2019-08-16 19:00:00 31.6 9 Sudoeste 29 Sudoeste 0 -- -- 38
2019-08-16 18:00:00 31.8 12 Oeste 27 Oeste 0 -- -- 37
2019-08-16 17:00:00 32.2 12 Sudoeste 25 Sudeste 0 -- -- 36
2019-08-16 16:00:00 32 13 Sur 26 Sudoeste 0 -- -- 38
2019-08-16 15:00:00 30.4 12 Sudeste 26 Sudeste 0 -- -- 42
2019-08-16 14:00:00 31.3 9 Sur 21 Sur 0 -- -- 39
2019-08-16 13:00:00 30.2 8 Este 20 Sudeste 0 -- -- 39
2019-08-16 12:00:00 29.1 6 Sudeste 17 Sur 0 -- -- 43
2019-08-16 11:00:00 27.5 7 Nordeste 16 Este 0 -- -- 50
2019-08-16 10:00:00 25.8 8 Este 15 Este 0 -- -- 57
2019-08-16 09:00:00 24.6 4 Este 8 Este 0 -- -- 66
2019-08-16 08:00:00 20.8 0 Calma 0 Calma 0 -- -- 77
2019-08-16 07:00:00 20 0 Calma 0 Calma 0 -- -- 80
2019-08-16 06:00:00 20 0 Calma 0 Calma 0 -- -- 77
2019-08-16 05:00:00 20.5 0 Calma 2 Sur 0 -- -- 72
2019-08-16 04:00:00 20.8 0 Calma 0 Calma 0 -- -- 76
2019-08-16 03:00:00 21.2 0 Calma 4 Sur 0 -- -- 73
2019-08-16 02:00:00 21.9 0 Calma 0 Calma 0 -- -- 71
2019-08-16 01:00:00 21.9 0 Calma 3 Sudeste 0 -- -- 66
2019-08-16 00:00:00 23.2 0 Calma 0 Calma 0 -- -- 63
2019-08-15 23:00:00 24.2 0 Calma 6 Sur 0 -- -- 60
2019-08-15 22:00:00 25.4 4 Sur 8 Sur 0 -- -- 55
2019-08-15 21:00:00 27 3 Sudoeste 13 Sudoeste 0 -- -- 50
2019-08-15 20:00:00 29 9 Sur 19 Sur 0 -- -- 44
2019-08-15 19:00:00 29.9 6 Sur 22 Sudeste 0 -- -- 44
2019-08-15 18:00:00 29.3 13 Sudeste 23 Sur 0 -- -- 47
2019-08-15 17:00:00 29.6 11 Sur 27 Sudeste 0 -- -- 46
2019-08-15 16:00:00 30.3 12 Sur 25 Sur 0 -- -- 44
2019-08-15 15:00:00 31.9 11 Sudoeste 24 Sudoeste 0 -- -- 38
2019-08-15 14:00:00 30.1 10 Oeste 28 Norte 0 -- -- 44
2019-08-15 13:00:00 31 10 Sudeste 17 Este 0 -- -- 34
2019-08-15 12:00:00 29.4 7 Sudeste 13 Sur 0 -- -- 40
2019-08-15 11:00:00 28.1 6 Sudeste 13 Este 0 -- -- 46
2019-08-15 10:00:00 26.4 4 Este 9 Este 0 -- -- 56
2019-08-15 09:00:00 24.7 0 Calma 5 Nordeste 0 -- -- 69
2019-08-15 08:00:00 20.7 0 Calma 4 Sur 0 -- -- 81
2019-08-15 07:00:00 19 0 Calma 8 Sur 0 -- -- 81
2019-08-15 06:00:00 19.6 0 Calma 7 Sudeste 0 -- -- 80
2019-08-15 05:00:00 20.1 0 Calma 6 Sudoeste 0 -- -- 79
2019-08-15 04:00:00 20.3 2 Sur 7 Sur 0 -- -- 78
2019-08-15 03:00:00 20.7 2 Sudeste 6 Sur 0 -- -- 77
2019-08-15 02:00:00 21.3 2 Sudoeste 6 Sur 0 -- -- 74
2019-08-15 01:00:00 22.4 5 Sudeste 9 Sudeste 0 -- -- 71
2019-08-15 00:00:00 22.9 3 Sur 7 Sudeste 0 -- -- 68
2019-08-14 23:00:00 23.7 0 Calma 8 Sur 0 -- -- 65
2019-08-14 22:00:00 24.5 4 Sur 13 Sur 0 -- -- 64
2019-08-14 21:00:00 25.3 6 Sudoeste 19 Sudoeste 0 -- -- 60
2019-08-14 20:00:00 27.2 7 Sudoeste 24 Sudoeste 0 -- -- 53
2019-08-14 19:00:00 28.4 14 Sudoeste 32 Oeste 0 -- -- 47
2019-08-14 18:00:00 29.5 15 Sudoeste 32 Sudoeste 0 -- -- 41
2019-08-14 17:00:00 29.6 16 Sudoeste 35 Sudoeste 0 -- -- 39
2019-08-14 16:00:00 29.9 19 Sudoeste 36 Sudoeste 0 -- -- 39
2019-08-14 15:00:00 30.1 16 Sudoeste 32 Sur 0 -- -- 38
2019-08-14 14:00:00 29.1 17 Sudoeste 32 Sur 0 -- -- 45
2019-08-14 13:00:00 28.9 16 Sudoeste 28 Sudoeste 0 -- -- 44
2019-08-14 12:00:00 28 10 Sudoeste 21 Sudeste 0 -- -- 46
2019-08-14 11:00:00 26.7 10 Sudoeste 22 Sudoeste 0 -- -- 50
2019-08-14 10:00:00 25.5 13 Sudoeste 24 Sudoeste 0 -- -- 55
2019-08-14 09:00:00 24 9 Sudoeste 17 Oeste 0 -- -- 65
2019-08-14 08:00:00 20.5 4 Sur 10 Sur 0 -- -- 75
2019-08-14 07:00:00 18.6 4 Sur 8 Sur 0 -- -- 76
2019-08-14 06:00:00 18.2 5 Sur 8 Sur 0 -- -- 76
2019-08-14 05:00:00 18.1 2 Sudoeste 8 Sur 0 -- -- 74
2019-08-14 04:00:00 18.4 3 Sur 5 Sudeste 0 -- -- 73
2019-08-14 03:00:00 19 0 Calma 5 Sudoeste 0 -- -- 67
2019-08-14 02:00:00 19.6 0 Calma 3 Oeste 0 -- -- 67
2019-08-14 01:00:00 20.7 2 Sudoeste 8 Sur 0 -- -- 64
2019-08-14 00:00:00 21.1 4 Sur 7 Sur 0 -- -- 62
2019-08-13 23:00:00 21.8 3 Sur 5 Sudeste 0 -- -- 60
2019-08-13 22:00:00 22.7 4 Sur 5 Sur 0 -- -- 58
2019-08-13 21:00:00 23.4 5 Nordeste 13 Nordeste 0 -- -- 55
2019-08-13 20:00:00 24.8 9 Nordeste 20 Nordeste 0 -- -- 51
2019-08-13 19:00:00 25.6 10 Norte 24 Norte 0 -- -- 48
2019-08-13 18:00:00 26 15 Nordeste 30 Nordeste 0 -- -- 47
2019-08-13 17:00:00 26.7 13 Nordeste 27 Nordeste 0 -- -- 44
2019-08-13 16:00:00 26.5 12 Nordeste 29 Nordeste 0 -- -- 44
2019-08-13 15:00:00 26.3 15 Nordeste 32 Nordeste 0 -- -- 45
2019-08-13 14:00:00 25.7 16 Nordeste 34 Nordeste 0 -- -- 46
2019-08-13 13:00:00 25.1 17 Nordeste 35 Nordeste 0 -- -- 48
2019-08-13 12:00:00 24.5 22 Nordeste 39 Nordeste 0 -- -- 51
2019-08-13 11:00:00 24 23 Nordeste 39 Nordeste 0 -- -- 50
2019-08-13 10:00:00 24.3 25 Nordeste 40 Norte 0 -- -- 47
2019-08-13 09:00:00 23.3 21 Nordeste 35 Nordeste 0 -- -- 51
2019-08-13 08:00:00 22.4 17 Nordeste 28 Nordeste 0 -- -- 56
2019-08-13 07:00:00 22 18 Nordeste 28 Nordeste 0 -- -- 59
2019-08-13 06:00:00 22.2 17 Nordeste 29 Norte 0 -- -- 58
2019-08-13 05:00:00 22.3 17 Norte 31 Norte 0 -- -- 55
2019-08-13 04:00:00 22.5 15 Nordeste 35 Norte 0 -- -- 55
2019-08-13 03:00:00 23 21 Norte 34 Nordeste 0 -- -- 53
2019-08-13 02:00:00 23.2 17 Nordeste 32 Nordeste 0 -- -- 58
2019-08-13 01:00:00 23.4 13 Nordeste 27 Nordeste 0 -- -- 61
2019-08-13 00:00:00 23.5 12 Nordeste 23 Norte 0 -- -- 60
2019-08-12 23:00:00 23.5 12 Nordeste 22 Nordeste 0 -- -- 59
2019-08-12 22:00:00 23.5 14 Nordeste 25 Nordeste 0 -- -- 60
2019-08-12 21:00:00 23.7 15 Norte 31 Norte 0 -- -- 61
2019-08-12 20:00:00 24.6 17 Nordeste 33 Nordeste 0 -- -- 60
2019-08-12 19:00:00 25.5 22 Norte 32 Nordeste 0 -- -- 60
2019-08-12 18:00:00 25.9 21 Norte 35 Nordeste 0 -- -- 60
2019-08-12 17:00:00 25.7 19 Nordeste 33 Norte 0 -- -- 63
2019-08-12 16:00:00 25.5 22 Norte 33 Nordeste 0 -- -- 65
2019-08-12 15:00:00 25.8 20 Norte 34 Norte 0 -- -- 64
2019-08-12 14:00:00 25.8 21 Norte 33 Nordeste 0 -- -- 67
2019-08-12 13:00:00 27.8 20 Nordeste 33 Nordeste 0 -- -- 60
2019-08-12 12:00:00 26.9 23 Nordeste 37 Nordeste 0 -- -- 66
2019-08-12 11:00:00 26.6 17 Nordeste 31 Nordeste 0 -- -- 65
2019-08-12 10:00:00 25.6 17 Nordeste 27 Nordeste 0 -- -- 69
2019-08-12 09:00:00 24.9 17 Nordeste 30 Nordeste 0 -- -- 73
2019-08-12 08:00:00 24.7 17 Nordeste 32 Nordeste 0 -- -- 76
2019-08-12 07:00:00 25 18 Nordeste 31 Nordeste 0 -- -- 78
2019-08-12 06:00:00 25.2 16 Nordeste 29 Nordeste 0 -- -- 82
2019-08-12 05:00:00 25.4 4 Nordeste 10 Noroeste 0 -- -- 79
2019-08-12 04:00:00 25.8 6 Noroeste 14 Nordeste 0 -- -- 79
2019-08-12 03:00:00 26.1 2 Noroeste 6 Sudoeste 0 -- -- 78
2019-08-12 02:00:00 26 4 Sudoeste 6 Sudoeste 0 -- -- 80
2019-08-12 01:00:00 26.1 3 Noroeste 9 Nordeste 0 -- -- 80
2019-08-12 00:00:00 26.2 6 Nordeste 13 Norte 0 -- -- 79
2019-08-11 23:00:00 26.5 6 Norte 13 Nordeste 0 -- -- 77
2019-08-11 22:00:00 27 9 Nordeste 17 Nordeste 0 -- -- 72
2019-08-11 21:00:00 27.7 9 Nordeste 16 Norte 0 -- -- 66
2019-08-11 20:00:00 29.2 13 Nordeste 18 Nordeste 0 -- -- 59
2019-08-11 19:00:00 31.7 12 Nordeste 21 Nordeste 0 -- -- 50
2019-08-11 18:00:00 33.4 10 Nordeste 21 Nordeste 0 -- -- 46
2019-08-11 17:00:00 33.7 10 Nordeste 23 Nordeste 0 -- -- 45
2019-08-11 16:00:00 35 8 Oeste 24 Sudoeste 0 -- -- 38
2019-08-11 15:00:00 36 6 Sur 15 Sur 0 -- -- 29
2019-08-11 14:00:00 34.2 8 Sudoeste 26 Oeste 0 -- -- 40
2019-08-11 13:00:00 33.7 9 Sur 22 Sudeste 0 -- -- 39
2019-08-11 12:00:00 31.3 10 Sudeste 18 Sudeste 0 -- -- 52
2019-08-11 11:00:00 29.1 4 Sudeste 13 Este 0 -- -- 61
2019-08-11 10:00:00 27.4 5 Sur 9 Sudeste 0 -- -- 71
2019-08-11 09:00:00 26 4 Este 9 Este 0 -- -- 81
2019-08-11 08:00:00 24.3 0 Calma 5 Sur 0 -- -- 90
2019-08-11 07:00:00 23.6 0 Calma 3 Sudoeste 0 -- -- 88
2019-08-11 06:00:00 24.3 0 Calma 2 Oeste 0 -- -- 89
2019-08-11 05:00:00 24.1 0 Calma 5 Norte 0 -- -- 89
2019-08-11 04:00:00 24 5 Nordeste 7 Norte 0 -- -- 86
2019-08-11 03:00:00 24.3 2 Norte 7 Este 0 -- -- 84
2019-08-11 02:00:00 24.5 0 Calma 4 Oeste 0 -- -- 83
2019-08-11 01:00:00 25.1 0 Calma 4 Noroeste 0 -- -- 81
2019-08-11 00:00:00 26 2 Este 10 Este 0 -- -- 81
2019-08-10 23:00:00 26.2 2 Nordeste 8 Norte 0 -- -- 81
2019-08-10 22:00:00 26.5 4 Norte 10 Nordeste 0 -- -- 78
2019-08-10 21:00:00 27.4 6 Nordeste 17 Nordeste 0 -- -- 74
2019-08-10 20:00:00 28.8 12 Nordeste 18 Nordeste 0 -- -- 65
2019-08-10 19:00:00 30.5 12 Nordeste 18 Nordeste 0 -- -- 58
2019-08-10 18:00:00 31.7 14 Nordeste 23 Nordeste 0 -- -- 52
2019-08-10 17:00:00 31.7 18 Nordeste 25 Nordeste 0 -- -- 53
2019-08-10 16:00:00 31.9 16 Nordeste 28 Nordeste 0 -- -- 53
2019-08-10 15:00:00 32 14 Nordeste 27 Nordeste 0 -- -- 51
2019-08-10 14:00:00 31.5 19 Nordeste 29 Nordeste 0 -- -- 49
2019-08-10 13:00:00 31.7 16 Nordeste 27 Nordeste 0 -- -- 49
2019-08-10 12:00:00 31.5 16 Nordeste 26 Nordeste 0 -- -- 53
2019-08-10 11:00:00 31 14 Nordeste 22 Nordeste 0 -- -- 54
2019-08-10 10:00:00 29.3 13 Nordeste 21 Nordeste 0 -- -- 60
2019-08-10 09:00:00 27.2 8 Nordeste 14 Este 0 -- -- 67
2019-08-10 08:00:00 24.5 0 Calma 8 Nordeste 0 -- -- 93
2019-08-10 07:00:00 24 6 Nordeste 9 Nordeste 0 -- -- 86
2019-08-10 06:00:00 24.4 6 Oeste 20 Sur 0 -- -- 85
2019-08-10 05:00:00 24.2 5 Sur 10 Sur 0 -- -- 82
2019-08-10 04:00:00 24.1 7 Sur 13 Sudoeste 0 -- -- 80
2019-08-10 03:00:00 24 5 Sudeste 13 Sudeste 0 -- -- 77
2019-08-10 02:00:00 24.1 8 Sur 14 Sur 0 -- -- 72
2019-08-10 01:00:00 24.9 6 Sur 12 Sur 0 -- -- 76
2019-08-10 00:00:00 25.6 4 Sur 10 Sudoeste 0 -- -- 76
2019-08-09 23:00:00 26.1 4 Sudoeste 15 Oeste 0 -- -- 69
2019-08-09 22:00:00 27.3 6 Sudoeste 14 Sudoeste 0 -- -- 63
2019-08-09 21:00:00 30 5 Sudoeste 19 Sudoeste 0 -- -- 43
2019-08-09 20:00:00 32.6 10 Sudoeste 24 Sur 0 -- -- 35
2019-08-09 19:00:00 34.3 12 Sudoeste 21 Sudoeste 0 -- -- 28
2019-08-09 18:00:00 35.2 10 Sudoeste 27 Oeste 0 -- -- 23
2019-08-09 17:00:00 35.4 12 Sudoeste 30 Oeste 0 -- -- 27
2019-08-09 16:00:00 35.6 17 Sudoeste 32 Oeste 0 -- -- 37
2019-08-09 15:00:00 35.8 13 Sudoeste 28 Sudoeste 0 -- -- 26
2019-08-09 14:00:00 35.3 13 Sudoeste 26 Sudoeste 0 -- -- 28
2019-08-09 13:00:00 35 10 Sur 28 Sur 0 -- -- 30
2019-08-09 12:00:00 34.6 11 Sur 44 Sudoeste 0 -- -- 28
2019-08-09 11:00:00 32.9 13 Sudoeste 22 Sur 0 -- -- 29
2019-08-09 10:00:00 29.2 7 Sur 14 Sudeste 0 -- -- 53
2019-08-09 09:00:00 26.2 12 Sur 18 Sur 0 -- -- 72
2019-08-09 08:00:00 24.5 7 Sur 15 Sur 0 -- -- 84
2019-08-09 07:00:00 23.7 5 Sur 9 Sur 0 -- -- 85
2019-08-09 06:00:00 24.1 0 Calma 10 Sudeste 0 -- -- 83
2019-08-09 05:00:00 24.2 6 Sur 13 Sur 0 -- -- 82
2019-08-09 04:00:00 23.5 5 Sur 11 Sudoeste 0 -- -- 65
2019-08-09 03:00:00 24.2 5 Sur 11 Sur 0 -- -- 63
2019-08-09 02:00:00 25.2 2 Sur 12 Sudoeste 0 -- -- 57
2019-08-09 01:00:00 25.2 5 Sudoeste 10 Sudoeste 0 -- -- 54
2019-08-09 00:00:00 25.7 3 Sudoeste 8 Sur 0 -- -- 57
2019-08-08 23:00:00 26.4 4 Sur 8 Sur 0 -- -- 55
2019-08-08 22:00:00 28 0 Calma 10 Oeste 0 -- -- 47
2019-08-08 21:00:00 29.6 5 Oeste 15 Oeste 0 -- -- 42
2019-08-08 20:00:00 33 7 Sudoeste 17 Oeste 0 -- -- 42
2019-08-08 19:00:00 34.3 9 Sudoeste 20 Sur 0 -- -- 34
2019-08-08 18:00:00 35.1 10 Sudoeste 21 Sudoeste 0 -- -- 32
2019-08-08 17:00:00 35 13 Sudoeste 26 Sur 0 -- -- 38
2019-08-08 16:00:00 34.9 11 Sudoeste 24 Oeste 0 -- -- 37
2019-08-08 15:00:00 34.1 14 Sur 30 Sur 0 -- -- 43
2019-08-08 14:00:00 34.1 10 Sur 24 Sudeste 0 -- -- 44
2019-08-08 13:00:00 33.6 10 Sudeste 18 Sudeste 0 -- -- 40
2019-08-08 12:00:00 31.9 7 Sur 14 Sur 0 -- -- 45
2019-08-08 11:00:00 30.1 3 Sudoeste 13 Nordeste 0 -- -- 56
2019-08-08 10:00:00 28.5 6 Sudeste 13 Sudeste 0 -- -- 63
2019-08-08 09:00:00 27 4 Este 8 Nordeste 0 -- -- 72
2019-08-08 08:00:00 24.9 0 Calma 3 Sudoeste 0 -- -- 82
2019-08-08 07:00:00 23.9 0 Calma 4 Norte 0 -- -- 83
2019-08-08 06:00:00 24 0 Calma 5 Sur 0 -- -- 82
2019-08-08 05:00:00 24.7 0 Calma 8 Sur 0 -- -- 82
2019-08-08 04:00:00 24.6 2 Sudoeste 9 Sur 0 -- -- 83
2019-08-08 03:00:00 24.2 4 Sur 8 Sur 0 -- -- 82
2019-08-08 02:00:00 24 0 Calma 5 Sudoeste 0 -- -- 81
2019-08-08 01:00:00 24.8 3 Sudoeste 5 Sur 0 -- -- 80
2019-08-08 00:00:00 25.3 0 Calma 12 Nordeste 0 -- -- 79
2019-08-07 23:00:00 25.6 8 Nordeste 15 Nordeste 0 -- -- 79
2019-08-07 22:00:00 26 7 Nordeste 15 Nordeste 0 -- -- 77
2019-08-07 21:00:00 27 7 Nordeste 18 Nordeste 0 -- -- 71
2019-08-07 20:00:00 28.7 10 Nordeste 17 Nordeste 0 -- -- 63
2019-08-07 19:00:00 30.7 10 Nordeste 17 Norte 0 -- -- 54
2019-08-07 18:00:00 30.9 12 Nordeste 22 Nordeste 0 -- -- 54
2019-08-07 17:00:00 31.2 16 Nordeste 30 Nordeste 0 -- -- 53
2019-08-07 16:00:00 31.7 16 Nordeste 28 Nordeste 0 -- -- 51
2019-08-07 15:00:00 33 14 Nordeste 29 Nordeste 0 -- -- 45
2019-08-07 14:00:00 34.1 9 Norte 23 Nordeste 0 -- -- 41
2019-08-07 13:00:00 32.1 7 Oeste 24 Oeste 0 -- -- 46
2019-08-07 12:00:00 30.9 10 Sudoeste 27 Sudoeste 0 -- -- 47
2019-08-07 11:00:00 29.6 10 Sudoeste 20 Sur 0 -- -- 50
2019-08-07 10:00:00 27.2 4 Oeste 10 Oeste 0 -- -- 63
2019-08-07 09:00:00 25.6 0 Calma 12 Sur 0 -- -- 76
2019-08-07 08:00:00 23.3 2 Sur 8 Sur 0 -- -- 87
2019-08-07 07:00:00 22.8 0 Calma 10 Sudeste 0 -- -- 87
2019-08-07 06:00:00 23.2 5 Sur 11 Sur 0 -- -- 87
2019-08-07 05:00:00 23.2 4 Sur 10 Sur 0 -- -- 87
2019-08-07 04:00:00 23.7 3 Sur 10 Sudoeste 0 -- -- 83
2019-08-07 03:00:00 23.9 6 Sudoeste 10 Sur 0 -- -- 83
2019-08-07 02:00:00 24.3 3 Sur 8 Sur 0 -- -- 80
2019-08-07 01:00:00 24.5 0 Calma 6 Sudeste 0 -- -- 78
2019-08-07 00:00:00 25.1 3 Sur 6 Sudeste 0 -- -- 74
2019-08-06 23:00:00 25.8 0 Calma 6 Sudeste 0 -- -- 70
2019-08-06 22:00:00 26.5 3 Nordeste 11 Este 0 -- -- 68
2019-08-06 21:00:00 27.4 7 Nordeste 14 Nordeste 0 -- -- 64
2019-08-06 20:00:00 29.9 9 Nordeste 18 Nordeste 0 -- -- 55
2019-08-06 19:00:00 31.9 10 Nordeste 21 Norte 0 -- -- 49
2019-08-06 18:00:00 33.2 6 Nordeste 21 Este 0 -- -- 45
2019-08-06 17:00:00 33.2 12 Nordeste 23 Nordeste 0 -- -- 44
2019-08-06 16:00:00 34.6 8 Oeste 21 Sudoeste 0 -- -- 34
2019-08-06 15:00:00 33.4 10 Oeste 24 Sudoeste 0 -- -- 39
2019-08-06 14:00:00 33.1 11 Oeste 27 Sudoeste 0 -- -- 39
2019-08-06 13:00:00 33.2 14 Oeste 24 Sudoeste 0 -- -- 42
2019-08-06 12:00:00 32.1 8 Sudeste 16 Sudeste 0 -- -- 38
2019-08-06 11:00:00 29.3 5 Sur 12 Sudeste 0 -- -- 53
2019-08-06 10:00:00 27.6 4 Sudeste 12 Este 0 -- -- 63
2019-08-06 09:00:00 25.3 5 Sudeste 10 Este 0 -- -- 80
2019-08-06 08:00:00 23.6 2 Este 8 Sudeste 0 -- -- 95
2019-08-06 07:00:00 22.6 3 Norte 9 Este 0 -- -- 87
2019-08-06 06:00:00 22.5 0 Calma 5 Norte 0 -- -- 84
2019-08-06 05:00:00 22.4 0 Calma 4 Nordeste 0 -- -- 81
2019-08-06 04:00:00 23.3 0 Calma 8 Sur 0 -- -- 82
2019-08-06 03:00:00 23.6 5 Sur 10 Sur 0 -- -- 82
2019-08-06 02:00:00 23.9 7 Sur 10 Sur 0 -- -- 81
2019-08-06 01:00:00 24.7 4 Sur 8 Sur 0 -- -- 77
2019-08-06 00:00:00 25.2 3 Sur 7 Sudeste 0 -- -- 73
2019-08-05 23:00:00 26.1 2 Sur 10 Sudeste 0 -- -- 65
2019-08-05 22:00:00 27.4 5 Sudeste 12 Sudeste 0 -- -- 48
2019-08-05 21:00:00 29.7 6 Sudeste 17 Sudeste 0 -- -- 27
2019-08-05 20:00:00 32 11 Sudeste 21 Este 0 -- -- 22
2019-08-05 19:00:00 33.3 12 Sudeste 25 Este 0 -- -- 26
2019-08-05 18:00:00 34.1 13 Sudeste 28 Sudeste 0 -- -- 26
2019-08-05 17:00:00 34.3 13 Sudeste 28 Este 0 -- -- 24
2019-08-05 16:00:00 34.4 14 Este 29 Nordeste 0 -- -- 27
2019-08-05 15:00:00 35.2 9 Sur 29 Este 0 -- -- 20
2019-08-05 14:00:00 34.3 13 Sudeste 22 Sudeste 0 -- -- 20
2019-08-05 13:00:00 32.9 11 Este 20 Este 0 -- -- 24
2019-08-05 12:00:00 31.6 11 Este 24 Sudeste 0 -- -- 25
2019-08-05 11:00:00 29.8 10 Este 17 Este 0 -- -- 44
2019-08-05 10:00:00 28 9 Este 15 Este 0 -- -- 48
2019-08-05 09:00:00 26 4 Sudeste 7 Sudeste 0 -- -- 68
2019-08-05 08:00:00 22.3 0 Calma 3 Noroeste 0 -- -- 76
2019-08-05 07:00:00 20.8 0 Calma 3 Norte 0 -- -- 78
2019-08-05 06:00:00 21.2 0 Calma 6 Sur 0 -- -- 73
2019-08-05 05:00:00 22.4 2 Sur 9 Sur 0 -- -- 74
2019-08-05 04:00:00 22.7 6 Sur 9 Sur 0 -- -- 75
2019-08-05 03:00:00 22.4 3 Sur 5 Sudoeste 0 -- -- 72
2019-08-05 02:00:00 23.1 0 Calma 6 Sudoeste 0 -- -- 66
2019-08-05 01:00:00 23.6 4 Sudoeste 6 Sudoeste 0 -- -- 62
2019-08-05 00:00:00 24.9 3 Sudoeste 6 Sudoeste 0 -- -- 59
2019-08-04 23:00:00 25.8 5 Sudoeste 9 Sudoeste 0 -- -- 54
2019-08-04 22:00:00 27.2 5 Sudeste 11 Sudeste 0 -- -- 48
2019-08-04 21:00:00 29 8 Sudeste 20 Sudeste 0 -- -- 37
2019-08-04 20:00:00 31.5 13 Sudeste 24 Sudeste 0 -- -- 29
2019-08-04 19:00:00 33.4 12 Sudeste 22 Este 0 -- -- 23
2019-08-04 18:00:00 34.1 11 Sudeste 23 Sudeste 0 -- -- 22
2019-08-04 17:00:00 34.4 12 Sur 24 Este 0 -- -- 21
2019-08-04 16:00:00 34.7 11 Sur 28 Este 0 -- -- 19
2019-08-04 15:00:00 34.5 15 Sudeste 28 Sudeste 0 -- -- 19
2019-08-04 14:00:00 34.3 15 Sudeste 30 Sudeste 0 -- -- 21
2019-08-04 13:00:00 34.2 6 Sudeste 19 Sudeste 0 -- -- 19
2019-08-04 12:00:00 32.6 5 Este 15 Este 0 -- -- 26
2019-08-04 11:00:00 30.9 3 Norte 13 Nordeste 0 -- -- 32
2019-08-04 10:00:00 28.8 9 Nordeste 14 Este 0 -- -- 38
2019-08-04 09:00:00 26.2 0 Calma 3 Este 0 -- -- 45
2019-08-04 08:00:00 21.6 0 Calma 5 Sur 0 -- -- 55
2019-08-04 07:00:00 19.5 0 Calma 3 Sudoeste 0 -- -- 60
2019-08-04 06:00:00 19.6 0 Calma 5 Sur 0 -- -- 58
2019-08-04 05:00:00 20.4 2 Sur 6 Sur 0 -- -- 59
2019-08-04 04:00:00 20.9 0 Calma 6 Sudoeste 0 -- -- 62
2019-08-04 03:00:00 21.9 2 Sur 6 Sur 0 -- -- 59
2019-08-04 02:00:00 22.5 2 Sur 7 Sur 0 -- -- 61
2019-08-04 01:00:00 23.6 2 Sudoeste 8 Sudeste 0 -- -- 59
2019-08-04 00:00:00 24.5 5 Sur 9 Sudeste 0 -- -- 53
2019-08-03 23:00:00 25.4 4 Sur 8 Sur 0 -- -- 47
2019-08-03 22:00:00 26.5 4 Sur 12 Este 0 -- -- 43
2019-08-03 21:00:00 28 7 Sudeste 19 Sudeste 0 -- -- 39
2019-08-03 20:00:00 30.3 11 Sudeste 19 Este 0 -- -- 38
2019-08-03 19:00:00 31.6 12 Este 21 Sudeste 0 -- -- 33
2019-08-03 18:00:00 32.4 14 Este 24 Nordeste 0 -- -- 32
2019-08-03 17:00:00 32.8 13 Nordeste 27 Nordeste 0 -- -- 33
2019-08-03 16:00:00 32.9 11 Nordeste 27 Nordeste 0 -- -- 32
2019-08-03 15:00:00 33 11 Nordeste 25 Nordeste 0 -- -- 29
2019-08-03 14:00:00 32.9 9 Nordeste 18 Este 0 -- -- 28
2019-08-03 13:00:00 31.6 11 Norte 26 Nordeste 0 -- -- 29
2019-08-03 12:00:00 31.1 11 Nordeste 23 Norte 0 -- -- 29
2019-08-03 11:00:00 29.8 13 Nordeste 25 Nordeste 0 -- -- 33
2019-08-03 10:00:00 28.1 11 Nordeste 20 Este 0 -- -- 39
2019-08-03 09:00:00 26 3 Este 6 Norte 0 -- -- 45
2019-08-03 08:00:00 21 0 Calma 2 Sur 0 -- -- 63
2019-08-03 07:00:00 18.4 0 Calma 2 Sudoeste 0 -- -- 71
2019-08-03 06:00:00 18.6 0 Calma 3 Sur 0 -- -- 77
2019-08-03 05:00:00 18.8 0 Calma 3 Sudoeste 0 -- -- 76
2019-08-03 04:00:00 19.6 0 Calma 3 Sur 0 -- -- 75
2019-08-03 03:00:00 20.4 0 Calma 4 Sur 0 -- -- 75
2019-08-03 02:00:00 20.6 0 Calma 5 Sur 0 -- -- 68
2019-08-03 01:00:00 21.5 0 Calma 5 Sur 0 -- -- 67
2019-08-03 00:00:00 22.7 0 Calma 4 Sudeste 0 -- -- 65
2019-08-02 23:00:00 23.5 3 Nordeste 6 Nordeste 0 -- -- 63
2019-08-02 22:00:00 24.2 2 Nordeste 13 Nordeste 0 -- -- 61
2019-08-02 21:00:00 25.2 8 Nordeste 20 Nordeste 0 -- -- 55
2019-08-02 20:00:00 27.1 13 Nordeste 25 Nordeste 0 -- -- 42
2019-08-02 19:00:00 28.1 16 Nordeste 25 Nordeste 0 -- -- 43
2019-08-02 18:00:00 29.1 16 Nordeste 26 Nordeste 0 -- -- 39
2019-08-02 17:00:00 29.5 17 Nordeste 25 Este 0 -- -- 36
2019-08-02 16:00:00 29.5 12 Norte 31 Nordeste 0 -- -- 38
2019-08-02 15:00:00 29.3 17 Nordeste 28 Nordeste 0 -- -- 40
2019-08-02 14:00:00 29 18 Nordeste 34 Norte 0 -- -- 40
2019-08-02 13:00:00 28.8 17 Nordeste 35 Nordeste 0 -- -- 41
2019-08-02 12:00:00 28.3 24 Nordeste 38 Nordeste 0 -- -- 42
2019-08-02 11:00:00 27.9 26 Nordeste 43 Nordeste 0 -- -- 40
2019-08-02 10:00:00 27.2 22 Norte 32 Norte 0 -- -- 44
2019-08-02 09:00:00 26.2 18 Norte 28 Norte 0 -- -- 45
2019-08-02 08:00:00 23.8 13 Norte 23 Norte 0 -- -- 62
2019-08-02 07:00:00 23.1 14 Norte 25 Norte 0 -- -- 80
2019-08-02 06:00:00 23.5 13 Norte 21 Norte 0 -- -- 86
2019-08-02 05:00:00 23.6 5 Norte 9 Norte 0 -- -- 85
2019-08-02 04:00:00 23.8 2 Noroeste 10 Norte 0 -- -- 83
2019-08-02 03:00:00 24.1 6 Noroeste 10 Norte 0 -- -- 81
2019-08-02 02:00:00 24.4 2 Noroeste 6 Oeste 0 -- -- 81
2019-08-02 01:00:00 24.7 0 Calma 6 Nordeste 0 -- -- 80
2019-08-02 00:00:00 24.7 3 Norte 8 Norte 0 -- -- 80
2019-08-01 23:00:00 24.8 6 Norte 12 Norte 0 -- -- 78
2019-08-01 22:00:00 25.3 5 Nordeste 14 Nordeste 0 -- -- 73
2019-08-01 21:00:00 26.1 10 Nordeste 24 Nordeste 0 -- -- 69
2019-08-01 20:00:00 26.6 19 Nordeste 29 Nordeste 0 -- -- 66
2019-08-01 19:00:00 27.3 15 Nordeste 28 Nordeste 0 -- -- 61
2019-08-01 18:00:00 28.6 14 Norte 22 Norte 0 -- -- 58
2019-08-01 17:00:00 31.2 14 Nordeste 22 Nordeste 0 -- -- 48
2019-08-01 16:00:00 32.7 15 Nordeste 23 Nordeste 0 -- -- 44
2019-08-01 15:00:00 32.3 12 Nordeste 25 Nordeste 0 -- -- 44
2019-08-01 14:00:00 31.8 13 Nordeste 27 Nordeste 0 -- -- 44
2019-08-01 13:00:00 31.4 10 Este 20 Este 0 -- -- 43
2019-08-01 12:00:00 29.8 11 Este 27 Este 0 -- -- 46
2019-08-01 11:00:00 29.3 15 Este 27 Este 0 -- -- 42
2019-08-01 10:00:00 27.7 12 Nordeste 20 Nordeste 0 -- -- 49
2019-08-01 09:00:00 25.5 8 Nordeste 14 Nordeste 0 -- -- 59
2019-08-01 08:00:00 22.6 5 Norte 13 Noroeste 0 -- -- 76
2019-08-01 07:00:00 21.2 0 Calma 6 Nordeste 0 -- -- 79
2019-08-01 06:00:00 21.7 4 Norte 12 Norte 0 -- -- 75
2019-08-01 05:00:00 22.2 7 Norte 21 Nordeste 0 -- -- 75
2019-08-01 04:00:00 22.1 13 Norte 21 Nordeste 0 -- -- 72
2019-08-01 03:00:00 22.1 6 Norte 13 Norte 0 -- -- 70
2019-08-01 02:00:00 22.2 5 Nordeste 13 Nordeste 0 -- -- 69
2019-08-01 01:00:00 22.2 8 Norte 12 Norte 0 -- -- 69
2019-08-01 00:00:00 22.8 7 Norte 19 Nordeste 0 -- -- 65
2019-07-31 23:00:00 23 9 Nordeste 23 Nordeste 0 -- -- 64
2019-07-31 22:00:00 23.5 13 Norte 21 Nordeste 0 -- -- 62
2019-07-31 21:00:00 24 14 Norte 26 Nordeste 0 -- -- 60
2019-07-31 20:00:00 25.2 16 Nordeste 31 Nordeste 0 -- -- 53
2019-07-31 19:00:00 25.7 17 Nordeste 29 Nordeste 0 -- -- 51
2019-07-31 18:00:00 26.9 17 Norte 31 Norte 0 -- -- 47
2019-07-31 17:00:00 27.3 18 Nordeste 35 Nordeste 0 -- -- 45
2019-07-31 16:00:00 26.7 22 Nordeste 33 Nordeste 0 -- -- 46
2019-07-31 15:00:00 27.3 21 Nordeste 40 Nordeste 0 -- -- 45
2019-07-31 14:00:00 26.8 23 Nordeste 36 Nordeste 0 -- -- 48
2019-07-31 13:00:00 25.8 19 Nordeste 33 Nordeste 0 -- -- 50
2019-07-31 12:00:00 26 27 Nordeste 43 Nordeste 0 -- -- 42
2019-07-31 11:00:00 26.3 28 Nordeste 43 Nordeste 0 -- -- 44
2019-07-31 10:00:00 25.6 23 Nordeste 36 Nordeste 0 -- -- 51
2019-07-31 09:00:00 25 19 Nordeste 34 Nordeste 0 -- -- 58
2019-07-31 08:00:00 23.7 18 Nordeste 30 Nordeste 0 -- -- 62
2019-07-31 07:00:00 22.5 11 Nordeste 18 Norte 0 -- -- 70
2019-07-31 06:00:00 22.6 11 Nordeste 18 Nordeste 0 -- -- 68
2019-07-31 05:00:00 22.4 9 Nordeste 15 Nordeste 0 -- -- 68
2019-07-31 04:00:00 21.9 8 Nordeste 13 Nordeste 0 -- -- 73
2019-07-31 03:00:00 21.9 6 Nordeste 10 Nordeste 0 -- -- 72
2019-07-31 02:00:00 22.3 5 Nordeste 9 Nordeste 0 -- -- 73
2019-07-31 01:00:00 23.1 8 Nordeste 12 Nordeste 0 -- -- 73
2019-07-31 00:00:00 24 5 Nordeste 9 Este 0 -- -- 72
2019-07-30 23:00:00 24.5 5 Nordeste 17 Este 0 -- -- 71
2019-07-30 22:00:00 25.1 9 Este 21 Este 0 -- -- 70
2019-07-30 21:00:00 26.2 10 Este 24 Este 0 -- -- 66
2019-07-30 20:00:00 27.5 13 Este 22 Este 0 -- -- 59
2019-07-30 19:00:00 29 6 Norte 23 Nordeste 0 -- -- 50
2019-07-30 18:00:00 30.3 13 Nordeste 30 Norte 0 -- -- 49
2019-07-30 17:00:00 30 20 Norte 30 Norte 0 -- -- 49
2019-07-30 16:00:00 31.1 17 Nordeste 32 Nordeste 0 -- -- 44
2019-07-30 15:00:00 31.7 17 Nordeste 30 Nordeste 0 -- -- 42
2019-07-30 14:00:00 31.7 15 Nordeste 27 Nordeste 0 -- -- 40
2019-07-30 13:00:00 31.7 17 Nordeste 27 Nordeste 0 -- -- 35
2019-07-30 12:00:00 31.4 9 Nordeste 21 Nordeste 0 -- -- 27
2019-07-30 11:00:00 29.4 8 Este 15 Nordeste 0 -- -- 39
2019-07-30 10:00:00 27.3 5 Nordeste 12 Norte 0 -- -- 54
2019-07-30 09:00:00 25.8 4 Norte 10 Norte 0 -- -- 65
2019-07-30 08:00:00 23.2 0 Calma 8 Sur 0 -- -- 77
2019-07-30 07:00:00 20.5 3 Sur 9 Sur 0 -- -- 82
2019-07-30 06:00:00 20.2 0 Calma 4 Sudoeste 0 -- -- 79
2019-07-30 05:00:00 20.5 0 Calma 9 Sur 0 -- -- 76
2019-07-30 04:00:00 21.4 8 Sur 10 Sur 0 -- -- 76
2019-07-30 03:00:00 22.1 3 Sur 5 Sudeste 0 -- -- 72
2019-07-30 02:00:00 22.8 4 Sur 10 Sur 0 -- -- 70
2019-07-30 01:00:00 23.6 6 Sudoeste 14 Sur 0 -- -- 68
2019-07-30 00:00:00 24 8 Sudoeste 15 Sudoeste 0 -- -- 63
2019-07-29 23:00:00 24.6 8 Sudoeste 14 Sudoeste 0 -- -- 58
2019-07-29 22:00:00 25.4 6 Sudoeste 14 Sudoeste 0 -- -- 51
2019-07-29 21:00:00 27.1 8 Sudoeste 15 Sudoeste 0 -- -- 43
2019-07-29 20:00:00 29.9 8 Sudoeste 21 Sudoeste 0 -- -- 37
2019-07-29 19:00:00 30.3 13 Sudoeste 26 Oeste 0 -- -- 33
2019-07-29 18:00:00 31.2 14 Sudoeste 27 Sudoeste 0 -- -- 30
2019-07-29 17:00:00 31.4 17 Oeste 29 Oeste 0 -- -- 28
2019-07-29 16:00:00 32.2 15 Sudoeste 31 Sudoeste 0 -- -- 26
2019-07-29 15:00:00 32.1 12 Sudoeste 25 Sudoeste 0 -- -- 25
2019-07-29 14:00:00 31 12 Sudoeste 26 Sur 0 -- -- 30
2019-07-29 13:00:00 29.9 12 Sudoeste 28 Oeste 0 -- -- 39
2019-07-29 12:00:00 28.8 13 Sudoeste 25 Sudoeste 0 -- -- 47
2019-07-29 11:00:00 27.8 12 Sudoeste 20 Sudoeste 0 -- -- 49
2019-07-29 10:00:00 26.1 7 Sudoeste 17 Sudoeste 0 -- -- 56
2019-07-29 09:00:00 24.3 4 Sudoeste 10 Noroeste 0 -- -- 62
2019-07-29 08:00:00 20.9 0 Calma 5 Sur 0 -- -- 75
2019-07-29 07:00:00 17.1 0 Calma 3 Sur 0 -- -- 79
2019-07-29 06:00:00 17.2 0 Calma 8 Sur 0 -- -- 75
2019-07-29 05:00:00 18.2 4 Sur 6 Sur 0 -- -- 76
2019-07-29 04:00:00 17.6 0 Calma 3 Sudoeste 0 -- -- 73
2019-07-29 03:00:00 17.9 0 Calma 3 Sudeste 0 -- -- 70
2019-07-29 02:00:00 19 0 Calma 3 Sur 0 -- -- 67
2019-07-29 01:00:00 19.8 0 Calma 6 Sur 0 -- -- 64
2019-07-29 00:00:00 21.2 4 Sur 11 Sur 0 -- -- 61
2019-07-28 23:00:00 22.3 4 Sur 5 Sur 0 -- -- 68
2019-07-28 22:00:00 23.4 0 Calma 15 Norte 0 -- -- 66
2019-07-28 21:00:00 24.2 10 Norte 19 Norte 0 -- -- 64
2019-07-28 20:00:00 25.7 13 Norte 27 Norte 0 -- -- 58
2019-07-28 19:00:00 27.1 18 Norte 28 Norte 0 -- -- 53
2019-07-28 18:00:00 27.5 17 Noroeste 30 Sudeste 0 -- -- 51
2019-07-28 17:00:00 29.5 12 Sur 31 Nordeste 0 -- -- 33
2019-07-28 16:00:00 27.1 19 Nordeste 30 Nordeste 0 -- -- 53
2019-07-28 15:00:00 27.6 12 Sudeste 34 Nordeste 0 -- -- 43
2019-07-28 14:00:00 27.7 17 Nordeste 35 Nordeste 0 -- -- 46
2019-07-28 13:00:00 28.7 4 Sudoeste 12 Este 0 -- -- 34
2019-07-28 12:00:00 28.3 5 Sur 19 Sudeste 0 -- -- 37
2019-07-28 11:00:00 26 3 Oeste 19 Sudeste 0 -- -- 46
2019-07-28 10:00:00 25.8 6 Sudeste 12 Nordeste 0 -- -- 51
2019-07-28 09:00:00 24.2 4 Sudeste 8 Sudeste 0 -- -- 62
2019-07-28 08:00:00 22.8 4 Sur 9 Sudeste 0 -- -- 71
2019-07-28 07:00:00 21.2 4 Sudeste 9 Sudeste 0 -- -- 77
2019-07-28 06:00:00 21.4 5 Sur 10 Sur 0 -- -- 75
2019-07-28 05:00:00 22.3 5 Sudeste 13 Nordeste 0 -- -- 73
2019-07-28 04:00:00 23.1 5 Este 18 Este 0 -- -- 70
2019-07-28 03:00:00 24.4 5 Nordeste 9 Nordeste 0 -- -- 48
2019-07-28 02:00:00 25.7 3 Oeste 21 Oeste 0 -- -- 45
2019-07-28 01:00:00 25.9 9 Oeste 17 Oeste 0 -- -- 40
2019-07-28 00:00:00 25.7 6 Sudoeste 17 Sudoeste 0 -- -- 56
2019-07-27 23:00:00 26.2 11 Sudoeste 22 Sudoeste 0 -- -- 62
2019-07-26 12:00:00 -- -- -- -- -- -- -- -- --
2019-07-26 11:00:00 31.1 9 Sudeste 18 Sudeste 0 -- -- 38
2019-07-26 10:00:00 29.9 8 Sudeste 14 Sur 0 -- -- 37
2019-07-26 09:00:00 27.1 4 Sudeste 8 Sudeste 0 -- -- 56
2019-07-26 08:00:00 23.4 0 Calma 4 Sur 0 -- -- 60
2019-07-26 07:00:00 21.2 3 Sur 6 Sudeste 0 -- -- 68
2019-07-26 06:00:00 21.4 0 Calma 8 Sur 0 -- -- 64
2019-07-26 05:00:00 22.3 5 Sur 8 Sur 0 -- -- 61
2019-07-26 04:00:00 22.4 2 Sur 6 Sur 0 -- -- 65
2019-07-26 03:00:00 23.1 3 Sur 7 Sur 0 -- -- 65
2019-07-26 02:00:00 23.7 5 Sur 9 Sur 0 -- -- 63
2019-07-26 01:00:00 24.2 0 Calma 4 Sur 0 -- -- 60
2019-07-26 00:00:00 25.1 0 Calma 5 Sur 0 -- -- 56
2019-07-25 23:00:00 26.4 3 Sudoeste 6 Sudoeste 0 -- -- 52
2019-07-25 22:00:00 28 2 Sudoeste 16 Sudeste 0 -- -- 45
2019-07-25 21:00:00 29.6 10 Sudeste 22 Sudeste 0 -- -- 35
2019-07-25 20:00:00 31.9 14 Sudeste 24 Este 0 -- -- 26
2019-07-25 19:00:00 33.6 13 Sudeste 25 Sudeste 0 -- -- 27
2019-07-25 18:00:00 34.5 14 Sudeste 31 Sudeste 0 -- -- 23
2019-07-25 17:00:00 35.4 14 Sudeste 27 Sudeste 0 -- -- 19
2019-07-25 16:00:00 35.9 12 Sur 27 Este 0 -- -- 18
2019-07-25 15:00:00 35.8 15 Este 27 Este 0 -- -- 19
2019-07-25 14:00:00 35 9 Sudeste 19 Sudeste 0 -- -- 27
2019-07-25 13:00:00 34 7 Sudeste 16 Sudeste 0 -- -- 31
2019-07-25 12:00:00 32.8 5 Nordeste 16 Este 0 -- -- 35
2019-07-25 11:00:00 30.8 8 Nordeste 15 Nordeste 0 -- -- 42
2019-07-25 10:00:00 28.6 7 Este 13 Nordeste 0 -- -- 54
2019-07-25 09:00:00 26 5 Nordeste 10 Este 0 -- -- 72
2019-07-25 08:00:00 22.6 2 Sudoeste 4 Sudoeste 0 -- -- 89
2019-07-25 07:00:00 21.9 0 Calma 5 Sur 0 -- -- 86
2019-07-25 06:00:00 22.7 0 Calma 4 Este 0 -- -- 85
2019-07-25 05:00:00 23 2 Sudeste 5 Sur 0 -- -- 82
2019-07-25 04:00:00 23.1 0 Calma 5 Sudeste 0 -- -- 78
2019-07-25 03:00:00 23.8 0 Calma 6 Sur 0 -- -- 77
2019-07-25 02:00:00 24.3 2 Sur 5 Sudoeste 0 -- -- 73
2019-07-25 01:00:00 24.5 4 Sudoeste 5 Sudoeste 0 -- -- 69
2019-07-25 00:00:00 25.7 3 Sur 6 Este 0 -- -- 67
2019-07-24 23:00:00 26.3 5 Sudeste 13 Sudeste 0 -- -- 64
2019-07-24 22:00:00 27.3 6 Este 18 Este 0 -- -- 60
2019-07-24 21:00:00 29 10 Este 16 Este 0 -- -- 50
2019-07-24 20:00:00 31.5 11 Este 17 Este 0 -- -- 38
2019-07-24 19:00:00 33.1 9 Este 21 Nordeste 0 -- -- 35
2019-07-24 18:00:00 34.2 10 Nordeste 22 Norte 0 -- -- 30
2019-07-24 17:00:00 35.1 12 Nordeste 24 Este 0 -- -- 25
2019-07-24 16:00:00 35.6 12 Nordeste 27 Nordeste 0 -- -- 24
2019-07-24 15:00:00 35.2 11 Este 24 Nordeste 0 -- -- 25
2019-07-24 14:00:00 35.3 8 Este 20 Nordeste 0 -- -- 21
2019-07-24 13:00:00 34.5 9 Este 19 Nordeste 0 -- -- 18
2019-07-24 12:00:00 33.4 8 Nordeste 15 Este 0 -- -- 22
2019-07-24 11:00:00 32 7 Este 12 Este 0 -- -- 23
2019-07-24 10:00:00 30.3 5 Este 9 Nordeste 0 -- -- 25
2019-07-24 09:00:00 27.5 3 Nordeste 4 Norte 0 -- -- 45
2019-07-24 08:00:00 22.8 0 Calma 5 Sudoeste 0 -- -- 64
2019-07-24 07:00:00 20.3 0 Calma 3 Sudoeste 0 -- -- 67
2019-07-24 06:00:00 20.3 0 Calma 5 Sur 0 -- -- 66
2019-07-24 05:00:00 21.2 4 Sudoeste 5 Sudoeste 0 -- -- 66
2019-07-24 04:00:00 22.2 0 Calma 4 Sur 0 -- -- 73
2019-07-24 03:00:00 23.1 0 Calma 5 Sudoeste 0 -- -- 74
2019-07-24 02:00:00 23.8 0 Calma 8 Sudeste 0 -- -- 76
2019-07-24 01:00:00 24.5 3 Sudeste 6 Sudeste 0 -- -- 70
2019-07-24 00:00:00 25.7 4 Sudeste 10 Este 0 -- -- 66
2019-07-23 23:00:00 26.4 7 Sudeste 12 Este 0 -- -- 62
2019-07-23 22:00:00 27 3 Norte 9 Nordeste 0 -- -- 56
2019-07-23 21:00:00 28.8 7 Nordeste 13 Norte 0 -- -- 50
2019-07-23 20:00:00 31.1 9 Norte 19 Nordeste 0 -- -- 38
2019-07-23 19:00:00 32.4 14 Nordeste 22 Nordeste 0 -- -- 23
2019-07-23 18:00:00 34.3 13 Norte 25 Nordeste 0 -- -- 19
2019-07-23 17:00:00 34.9 16 Nordeste 26 Norte 0 -- -- 18
2019-07-23 16:00:00 34.9 19 Nordeste 31 Nordeste 0 -- -- 19
2019-07-23 15:00:00 37 12 Nordeste 28 Nordeste 0 -- -- 17
2019-07-23 14:00:00 36.3 8 Este 20 Este 0 -- -- 13
2019-07-23 13:00:00 35.3 8 Este 18 Este 0 -- -- 18
2019-07-23 12:00:00 33.9 6 Nordeste 13 Nordeste 0 -- -- 20
2019-07-23 11:00:00 32.1 3 Sudeste 10 Sudeste 0 -- -- 25
2019-07-23 10:00:00 29.5 5 Sudeste 10 Sudeste 0 -- -- 32
2019-07-23 09:00:00 27.2 4 Este 9 Este 0 -- -- 40
2019-07-23 08:00:00 23 0 Calma 3 Sudeste 0 -- -- 63
2019-07-23 07:00:00 20.6 2 Oeste 5 Sur 0 -- -- 75
2019-07-23 06:00:00 21.3 0 Calma 7 Sur 0 -- -- 73
2019-07-23 05:00:00 22.2 2 Sur 6 Sur 0 -- -- 74
2019-07-23 04:00:00 22.4 0 Calma 6 Sur 0 -- -- 75
2019-07-23 03:00:00 22.1 0 Calma 3 Sudeste 0 -- -- 65
2019-07-23 02:00:00 23.2 4 Sudoeste 5 Sudoeste 0 -- -- 63
2019-07-23 01:00:00 24.3 2 Sur 6 Este 0 -- -- 60
2019-07-23 00:00:00 25.9 3 Este 8 Nordeste 0 -- -- 52
2019-07-22 23:00:00 26.7 6 Este 9 Nordeste 0 -- -- 48
2019-07-22 22:00:00 28.1 5 Este 15 Este 0 -- -- 40
2019-07-22 21:00:00 30 9 Este 17 Este 0 -- -- 33
2019-07-22 20:00:00 32.3 10 Este 21 Este 0 -- -- 27
2019-07-22 19:00:00 34.1 12 Este 24 Sudeste 0 -- -- 21
2019-07-22 18:00:00 35.1 13 Este 24 Sudeste 0 -- -- 20
2019-07-22 17:00:00 35.3 10 Este 23 Este 0 -- -- 17
2019-07-22 16:00:00 34.8 13 Este 23 Este 0 -- -- 17
2019-07-22 15:00:00 34.2 11 Sudeste 30 Sudeste 0 -- -- 20
2019-07-22 14:00:00 34.2 11 Este 23 Nordeste 0 -- -- 21
2019-07-22 13:00:00 33.5 11 Nordeste 27 Este 0 -- -- 24
2019-07-22 12:00:00 32.6 13 Este 25 Nordeste 0 -- -- 25
2019-07-22 11:00:00 31.3 9 Este 20 Este 0 -- -- 29
2019-07-22 10:00:00 29.1 9 Este 15 Este 0 -- -- 34
2019-07-22 09:00:00 26.7 5 Este 11 Sudeste 0 -- -- 46
2019-07-22 08:00:00 22.4 0 Calma 4 Noroeste 0 -- -- 70
2019-07-22 07:00:00 20.2 0 Calma 5 Oeste 0 -- -- 75
2019-07-22 06:00:00 20.1 0 Calma 0 Calma 0 -- -- 71
2019-07-22 05:00:00 20.2 0 Calma 2 Sur 0 -- -- 69
2019-07-22 04:00:00 21.3 0 Calma 3 Oeste 0 -- -- 67
2019-07-22 03:00:00 21.8 2 Sudoeste 3 Sudoeste 0 -- -- 70
2019-07-22 02:00:00 22.1 0 Calma 3 Sudoeste 0 -- -- 53
2019-07-22 01:00:00 23.2 0 Calma 5 Oeste 0 -- -- 50
2019-07-22 00:00:00 24.2 0 Calma 4 Sudeste 0 -- -- 50
2019-07-21 23:00:00 25.7 0 Calma 8 Sudeste 0 -- -- 46
2019-07-21 22:00:00 27.2 5 Sudeste 14 Este 0 -- -- 42
2019-07-21 21:00:00 28.6 7 Este 17 Sudeste 0 -- -- 38
2019-07-21 20:00:00 30.5 10 Este 21 Sudeste 0 -- -- 31
2019-07-21 19:00:00 31.5 11 Este 25 Este 0 -- -- 29
2019-07-21 18:00:00 31.9 12 Este 24 Este 0 -- -- 28
2019-07-21 17:00:00 32.3 15 Este 28 Este 0 -- -- 27
2019-07-21 16:00:00 32.5 14 Este 30 Este 0 -- -- 30
2019-07-21 15:00:00 32.8 15 Este 30 Este 0 -- -- 24
2019-07-21 14:00:00 32.3 16 Este 30 Este 0 -- -- 23
2019-07-21 13:00:00 32 14 Sudeste 29 Nordeste 0 -- -- 29
2019-07-21 12:00:00 31.1 14 Sudeste 28 Este 0 -- -- 30
2019-07-21 11:00:00 30.3 13 Este 24 Nordeste 0 -- -- 36
2019-07-21 10:00:00 28.2 12 Nordeste 20 Norte 0 -- -- 53
2019-07-21 09:00:00 26 9 Nordeste 17 Nordeste 0 -- -- 67
2019-07-21 08:00:00 23.1 3 Norte 10 Nordeste 0 -- -- 74
2019-07-21 07:00:00 20.4 0 Calma 4 Noroeste 0 -- -- 74
2019-07-21 06:00:00 20.1 0 Calma 2 Sudoeste 0 -- -- 72
2019-07-21 05:00:00 19.8 0 Calma 2 Norte 0 -- -- 63
2019-07-21 04:00:00 20.6 0 Calma 4 Sudoeste 0 -- -- 61
2019-07-21 03:00:00 20.9 0 Calma 4 Sudoeste 0 -- -- 61
2019-07-21 02:00:00 22.1 0 Calma 7 Sur 0 -- -- 60
2019-07-21 01:00:00 23 0 Calma 6 Sur 0 -- -- 59
2019-07-21 00:00:00 23.3 0 Calma 4 Sudoeste 0 -- -- 59